Latest Weather Observations for Norfolk Island

IDN60801

Issued at 9:05 pm EST Wednesday 30 July 2014 (issued every 30 minutes, with the page automatically refreshed every 10 minutes)

About weather observations | Map of weather stations | Latest weather observations for NSW | Other Formats
Station Details ID: 200288 Name: NORFOLK ISLAND AERO Lat: -29.04 Lon: 167.94 Height: 111.73 m
Data from the previous 72 hours. | See also: Recent months at Norfolk Island
Date/Time
EST
Temp
°C
App
Temp
°C
Dew
Point
Rel
Hum
%
Delta-T
°C
Wind Press
QNH
hPa
Press
MSL
hPa
Rain
since 9 am
mm
Dir
 
Spd
km/h
Gust
km/h
Spd
kts
Gust
kts
30/09:00pm 15.4 13.5 11.7 78 2.0 SSE 13 19 7 10 1024.1 - 0.0
30/08:30pm 15.1 13.8 11.4 78 2.0 ESE 9 15 5 8 1024.1 - 0.0
30/08:00pm 14.8 13.0 11.0 78 2.0 ESE 11 15 6 8 1023.9 - 0.0
30/07:30pm 14.8 12.9 10.6 76 2.2 ESE 11 15 6 8 1023.7 1023.5 0.0
30/07:00pm 14.9 12.9 10.3 74 2.4 ESE 11 17 6 9 1023.5 - 0.0
30/06:30pm 15.4 13.1 10.5 72 2.6 ESE 13 17 7 9 1023.5 - 0.0
30/06:00pm 15.5 12.7 10.0 70 2.9 SE 15 22 8 12 1023.4 - 0.0
30/05:30pm 15.6 12.9 10.3 70 2.8 SSE 15 20 8 11 1023.1 - 0.0
30/05:00pm 15.3 13.0 10.6 73 2.5 SSE 13 19 7 10 1023.1 - 0.0
30/04:30pm 15.6 13.3 10.5 71 2.7 SSE 13 19 7 10 1022.8 1022.7 0.0
30/04:00pm 16.1 13.8 10.6 70 2.9 SSE 13 20 7 11 1022.4 - 0.0
30/03:30pm 16.7 14.3 11.3 70 2.9 SSE 15 20 8 11 1022.3 - 0.0
30/03:00pm 17.1 14.0 11.6 70 3.0 S 19 26 10 14 1022.0 - 0.0
30/02:30pm 17.0 14.3 11.7 71 2.9 S 17 24 9 13 1021.8 - 0.0
30/02:00pm 17.6 15.0 12.0 69 3.1 SSE 17 24 9 13 1021.7 - 0.0
30/01:30pm 18.1 15.4 11.7 66 3.5 S 17 22 9 12 1021.7 1021.6 0.0
30/01:00pm 17.3 14.6 11.6 69 3.1 SSE 17 22 9 12 1021.9 - 0.0
30/12:30pm 17.9 14.9 12.1 69 3.2 S 19 24 10 13 1022.1 - 0.0
30/12:00pm 17.9 15.0 12.3 70 3.1 S 19 26 10 14 1022.2 - 0.0
30/11:30am 18.0 15.5 12.4 70 3.1 S 17 24 9 13 1022.5 - 0.0
30/11:00am 18.2 15.5 11.8 66 3.5 SE 17 24 9 13 1022.7 - 0.0
30/10:30am 18.4 15.9 12.3 67 3.4 SE 17 26 9 14 1023.2 1023.0 0.0
30/10:00am 18.0 15.4 12.0 68 3.3 SSE 17 22 9 12 1023.4 - 0.0
30/09:30am 17.8 15.1 11.8 68 3.3 S 17 26 9 14 1023.7 - 0.0
30/09:00am 17.6 15.0 12.0 69 3.1 SSE 17 24 9 13 1023.7 - 0.0
30/08:30am 17.4 15.2 12.1 71 2.9 SSE 15 20 8 11 1023.6 - 0.0
30/08:00am 17.2 15.0 12.1 72 2.8 SSE 15 22 8 12 1023.4 - 0.0
30/07:30am 16.7 14.0 11.7 72 2.7 S 17 24 9 13 1023.2 1023.0 0.2
30/07:00am 16.4 13.9 11.0 70 2.9 S 15 20 8 11 1023.1 - 0.2
30/06:30am 15.9 13.8 11.2 73 2.5 S 13 19 7 10 1022.8 - 0.2
30/06:00am 15.5 13.1 11.4 76 2.2 S 15 19 8 10 1022.4 - 0.2
30/05:30am 15.6 13.1 11.1 74 2.4 S 15 20 8 11 1022.3 - 0.2
30/05:00am 14.9 12.9 11.4 79 1.9 S 13 17 7 9 1021.7 - 0.2
30/04:30am 15.3 13.5 12.0 81 1.8 S 13 17 7 9 1021.6 1021.5 0.2
30/04:00am 15.2 13.6 11.7 79 1.9 S 11 17 6 9 1021.4 - 0.2
30/03:30am 15.0 13.3 11.1 77 2.1 SSW 11 15 6 8 1021.0 - 0.2
30/03:00am 14.9 13.1 10.7 76 2.2 SSW 11 13 6 7 1020.9 - 0.2
30/02:30am 15.4 13.1 11.7 78 2.0 SSW 15 19 8 10 1021.0 - 0.2
30/02:00am 15.4 13.5 11.7 78 2.0 SW 13 19 7 10 1021.1 - 0.2
30/01:30am 15.4 13.2 12.1 81 1.8 SSW 15 20 8 11 1021.2 1021.1 0.2
30/01:00am 15.1 13.3 12.2 83 1.6 SSW 13 19 7 10 1021.4 - 0.2
30/12:30am 15.2 13.5 12.5 84 1.5 SW 13 17 7 9 1021.7 - 0.2
30/12:00am 15.3 14.1 12.8 85 1.4 SW 11 17 6 9 1022.0 - 0.2
 
Date/Time
EST
Temp
°C
App
Temp
°C
Dew
Point
Rel
Hum
%
Delta-T
°C
Wind Press
QNH
hPa
Press
MSL
hPa
Rain
since 9 am
mm
Dir
 
Spd
km/h
Gust
km/h
Spd
kts
Gust
kts
29/11:30pm 15.6 14.1 13.1 85 1.4 SSW 13 15 7 8 1022.1 - 0.2
29/11:00pm 15.5 14.0 13.0 85 1.4 SW 13 15 7 8 1022.2 - 0.2
29/10:30pm 14.9 14.2 13.3 90 0.9 SSW 9 13 5 7 1022.0 1021.9 0.2
29/10:00pm 14.2 13.5 13.1 93 0.6 SSW 9 11 5 6 1022.1 - 0.2
29/09:30pm 14.3 14.0 13.4 94 0.5 SW 7 9 4 5 1022.3 - 0.2
29/09:00pm 14.6 14.5 13.9 96 0.4 SSW 7 9 4 5 1022.4 - 0.2
29/08:30pm 13.9 13.6 13.4 97 0.3 SSW 7 9 4 5 1022.3 - 0.2
29/08:00pm 14.4 15.5 13.5 94 0.5 CALM 0 0 0 0 1022.1 - 0.2
29/07:30pm 13.9 13.8 13.2 96 0.4 SW 6 7 3 4 1022.1 1022.0 0.2
29/07:17pm 13.7 13.9 13.2 97 0.3 SW 4 9 2 5 1022.0 - 0.2
29/07:00pm 14.5 15.7 13.8 96 0.4 CALM 0 0 0 0 1022.0 - 0.2
29/06:30pm 14.5 15.7 13.8 96 0.4 CALM 0 0 0 0 1021.7 - 0.2
29/06:00pm 14.5 15.7 13.8 96 0.4 CALM 0 0 0 0 1021.6 - 0.2
29/05:30pm 14.8 16.0 13.9 94 0.5 CALM 0 0 0 0 1021.5 - 0.2
29/05:00pm 15.0 16.2 13.9 93 0.6 CALM 0 0 0 0 1021.5 - 0.2
29/04:30pm 15.6 15.1 13.8 89 1.0 WSW 9 9 5 5 1021.4 1021.3 0.2
29/04:00pm 17.0 16.7 14.4 85 1.5 W 9 11 5 6 1021.2 - 0.2
29/03:30pm 17.8 17.0 14.0 78 2.2 W 11 13 6 7 1020.9 - 0.2
29/03:00pm 17.4 17.0 14.1 81 1.9 WSW 9 13 5 7 1020.7 - 0.2
29/02:30pm 17.8 16.8 12.4 70 3.0 NNE 9 13 5 7 1020.5 - 0.2
29/02:00pm 17.6 16.3 12.4 71 2.9 NNE 11 15 6 8 1020.3 - 0.2
29/01:30pm 18.0 16.1 11.8 67 3.4 NNE 13 17 7 9 1020.2 1020.1 0.2
29/01:00pm 18.3 16.2 12.4 68 3.3 NNE 15 26 8 14 1020.3 - 0.2
29/12:30pm 18.0 15.9 12.4 70 3.1 NE 15 20 8 11 1020.5 - 0.2
29/12:00pm 18.0 15.5 11.0 63 3.8 NE 15 19 8 10 1020.7 - 0.2
29/11:30am 17.9 16.0 11.7 67 3.4 NE 13 17 7 9 1021.0 - 0.2
29/11:00am 18.6 17.0 11.5 63 3.9 NNE 11 19 6 10 1021.5 - 0.0
29/10:30am 18.2 16.8 11.0 63 3.9 NNE 9 15 5 8 1021.9 1021.8 0.0
29/10:00am 18.4 17.1 12.5 68 3.3 NE 11 17 6 9 1022.1 - 0.0
29/09:30am 18.4 16.3 12.3 67 3.4 NE 15 19 8 10 1022.3 - 0.0
29/09:00am 18.2 17.2 12.3 68 3.3 NE 9 15 5 8 1022.6 - 0.0
29/08:30am 18.3 17.8 13.9 75 2.5 ENE 9 15 5 8 1022.5 - 0.0
29/08:00am 17.3 17.3 14.3 82 1.7 ESE 7 11 4 6 1022.1 - 0.0
29/07:30am 16.5 16.0 13.9 84 1.5 E 9 11 5 6 1021.9 1021.8 -
29/07:00am 16.4 16.9 14.1 86 1.3 E 4 9 2 5 1021.7 - 17.0
29/06:30am 14.3 15.2 12.8 91 0.8 CALM 0 0 0 0 1021.4 - 17.0
29/06:00am 13.2 13.8 11.9 92 0.7 CALM 0 0 0 0 1021.2 - 17.0
29/05:30am 13.0 13.6 11.9 93 0.6 CALM 0 0 0 0 1021.1 - 17.0
29/05:00am 13.3 12.7 11.6 89 0.9 E 6 7 3 4 1020.5 - 17.0
29/04:30am 12.5 11.7 11.6 94 0.5 NE 7 7 4 4 1020.2 1020.1 17.0
29/04:00am 12.7 11.9 11.2 91 0.8 NNE 6 9 3 5 1020.2 - 17.0
29/03:30am 13.5 12.9 11.8 89 0.9 NNE 6 7 3 4 1020.3 - 17.0
29/03:00am 13.5 12.7 11.8 89 0.9 NE 7 11 4 6 1020.1 - 17.0
29/02:30am 14.2 13.7 12.2 88 1.1 N 6 11 3 6 1020.1 - 17.0
29/02:00am 13.7 12.9 11.8 88 1.0 N 7 7 4 4 1020.1 - 17.0
29/01:30am 14.5 13.6 11.5 82 1.6 N 7 9 4 5 1020.2 1020.1 17.0
29/01:00am 14.7 13.8 11.5 81 1.7 N 7 9 4 5 1020.4 - 17.0
29/12:30am 15.0 14.1 11.3 78 2.0 N 7 11 4 6 1020.8 - 17.0
29/12:00am 14.8 13.7 10.8 77 2.1 N 7 9 4 5 1020.8 - 17.0
 
Date/Time
EST
Temp
°C
App
Temp
°C
Dew
Point
Rel
Hum
%
Delta-T
°C
Wind Press
QNH
hPa
Press
MSL
hPa
Rain
since 9 am
mm
Dir
 
Spd
km/h
Gust
km/h
Spd
kts
Gust
kts
28/11:30pm 14.8 13.7 10.6 76 2.2 N 7 11 4 6 1020.9 - 17.0
28/11:00pm 14.9 13.4 10.7 76 2.2 N 9 13 5 7 1021.0 - 17.0
28/10:30pm 14.5 13.2 11.3 81 1.7 NNE 9 11 5 6 1021.0 1020.9 17.0
28/10:00pm 14.6 13.4 11.6 82 1.6 NNE 9 13 5 7 1021.0 - 17.0
28/09:30pm 14.7 13.6 12.1 84 1.4 NNE 9 11 5 6 1021.1 - 17.0
28/09:00pm 14.4 13.4 12.2 87 1.2 NNE 9 11 5 6 1020.9 - 17.0
28/08:30pm 15.0 13.6 12.3 84 1.5 NE 11 15 6 8 1021.0 - 17.0
28/08:00pm 14.6 12.4 12.0 84 1.4 ENE 15 19 8 10 1020.7 - 17.0
28/07:30pm 15.3 12.6 11.6 78 2.0 NE 17 24 9 13 1020.9 1020.8 17.0
28/07:00pm 15.3 12.3 12.0 81 1.8 NE 19 28 10 15 1020.6 - 17.0
28/06:30pm 15.3 13.4 13.1 87 1.2 NE 15 26 8 14 1020.5 - 17.0
28/06:00pm 14.8 12.1 13.0 89 1.0 ENE 19 28 10 15 1020.2 - 17.0
28/05:52pm 14.7 12.2 12.3 85 1.3 ENE 17 24 9 13 1020.2 - 16.2
28/05:30pm 14.3 10.7 13.2 93 0.6 E 24 33 13 18 1020.0 - 15.8
28/05:19pm 14.1 13.7 13.0 93 0.6 NE 7 15 4 8 1020.0 - 13.6
28/05:11pm 14.0 13.6 12.9 93 0.6 E 7 13 4 7 1019.8 - 12.4
28/05:00pm 13.9 13.1 12.8 93 0.6 ENE 9 13 5 7 1019.8 - 11.8
28/04:55pm 13.9 13.1 12.8 93 0.6 NE 9 15 5 8 1019.8 - 11.8
28/04:30pm 13.9 11.6 13.0 94 0.5 ENE 17 22 9 12 1019.7 1019.6 10.8
28/04:00pm 14.1 11.8 13.0 93 0.6 NE 17 24 9 13 1019.4 - 8.2
28/03:30pm 14.3 12.0 13.0 92 0.7 NE 17 24 9 13 1019.2 - 7.0
28/03:00pm 14.1 11.8 11.9 86 1.2 NE 15 24 8 13 1019.2 - 6.2
28/02:30pm 14.1 11.9 12.1 88 1.1 NE 15 22 8 12 1019.0 - 5.4
28/02:20pm 14.2 11.2 12.4 89 1.0 NE 20 30 11 16 1018.9 - 5.4
28/02:00pm 14.9 12.6 12.9 88 1.1 NE 17 24 9 13 1018.8 - 5.2
28/01:30pm 14.8 13.3 13.0 89 1.0 NE 13 17 7 9 1018.6 1018.5 5.0
28/01:00pm 14.8 12.0 11.2 79 1.9 NE 17 24 9 13 1018.6 - 4.4
28/12:30pm 15.0 13.5 13.2 89 1.0 N 13 24 7 13 1018.6 - 3.8
28/12:08pm 15.2 14.0 12.9 86 1.3 NNE 11 26 6 14 1018.8 - 1.2
28/12:00pm 15.7 14.4 12.6 82 1.7 NE 11 13 6 7 1018.7 - 0.4
28/11:30am 15.3 12.7 10.6 73 2.5 NNE 15 24 8 13 1019.1 - 0.2
28/11:00am 17.1 13.3 11.0 67 3.3 NE 22 32 12 17 1019.4 - 0.0
28/10:30am 17.2 14.3 10.9 66 3.4 NE 17 26 9 14 1019.9 1019.8 0.0
28/10:00am 16.9 13.5 10.5 66 3.4 NE 19 28 10 15 1020.1 - 0.0
28/09:30am 16.8 14.2 10.8 67 3.2 NE 15 20 8 11 1020.4 - 0.0
28/09:00am 16.5 13.2 11.5 72 2.7 NE 20 30 11 16 1020.6 - 0.0
28/08:30am 16.8 12.9 10.8 67 3.2 NE 22 30 12 16 1020.7 - 0.0
28/08:00am 16.7 13.1 10.7 67 3.2 NE 20 30 11 16 1020.6 - 0.0
28/07:30am 16.6 13.2 10.6 67 3.2 ENE 19 26 10 14 1020.3 1020.2 0.2
28/07:00am 16.5 13.0 10.3 67 3.3 ENE 19 28 10 15 1020.2 - 0.2
28/06:30am 16.4 13.3 10.4 67 3.2 NE 17 24 9 13 1020.0 - 0.0
28/06:00am 16.4 12.9 10.2 66 3.3 ENE 19 28 10 15 1019.7 - 0.0
28/05:30am 15.9 12.8 10.4 70 2.9 ENE 17 22 9 12 1019.5 - 0.0
28/05:00am 16.0 12.9 10.3 69 3.0 NE 17 26 9 14 1019.5 - 0.0
28/04:30am 16.0 12.9 10.3 69 3.0 NE 17 28 9 15 1019.5 1019.4 0.0
28/04:00am 15.9 12.8 10.2 69 3.0 NE 17 28 9 15 1019.4 - 0.0
28/03:30am 16.0 13.2 9.9 67 3.2 NE 15 26 8 14 1019.4 - 0.0
28/03:00am 15.9 12.2 10.0 68 3.1 NE 20 28 11 15 1019.5 - 0.0
28/02:30am 15.7 12.7 9.3 65 3.3 NE 15 19 8 10 1019.6 - 0.0
28/02:00am 15.6 12.6 9.2 65 3.3 NNE 15 24 8 13 1019.8 - 0.0
28/01:30am 15.6 13.0 9.2 65 3.3 NE 13 22 7 12 1019.9 1019.8 0.0
28/01:00am 15.8 12.4 9.0 64 3.5 NE 17 30 9 16 1020.2 - 0.0
28/12:30am 15.7 12.2 8.9 64 3.5 NNE 17 24 9 13 1020.5 - 0.0
28/12:00am 15.5 12.5 9.1 65 3.3 NE 15 22 8 12 1020.8 - 0.0
 
Date/Time
EST
Temp
°C
App
Temp
°C
Dew
Point
Rel
Hum
%
Delta-T
°C
Wind Press
QNH
hPa
Press
MSL
hPa
Rain
since 9 am
mm
Dir
 
Spd
km/h
Gust
km/h
Spd
kts
Gust
kts
27/11:30pm 15.6 12.0 8.3 62 3.7 NE 17 28 9 15 1020.9 - 0.0
27/11:00pm 15.8 12.2 8.5 62 3.7 NE 17 28 9 15 1021.0 - 0.0
27/10:30pm 15.8 13.1 9.0 64 3.5 NNE 13 22 7 12 1021.5 1021.4 0.0
27/10:00pm 15.7 12.3 9.3 65 3.3 NE 17 26 9 14 1021.6 - 0.0
27/09:30pm 15.7 12.6 8.9 64 3.5 NNE 15 22 8 12 1021.9 - 0.0
27/09:00pm 15.7 13.1 9.3 65 3.3 NNE 13 22 7 12 1022.0 - 0.0
27/08:30pm 15.5 12.8 8.9 65 3.4 NNE 13 24 7 13 1022.0 - 0.0
27/08:00pm 15.5 12.9 9.3 66 3.2 NNE 13 22 7 12 1022.2 - 0.0

Other Formats:

Comma delimited format used in spreadsheet applications
http://www.bom.gov.au/fwo/IDN60801/IDN60801.94996.axf

JavaScript Object Notation format (JSON) in row-major order
http://www.bom.gov.au/fwo/IDN60801/IDN60801.94996.json